Flight Track Log - Related Links

Times and Time Zones

All times are in EDT time to prevent confusion due to time zone crossing. See the SWA896 flight status page for this flight to view local times or setup timezone preferences in your user account.


Time Position Orientation Groundspeed Altitude Reporting Facility
EDT Latitude Longitude Course Direction KTS MPH feet Rate Location/Type
Fri 08:05:57 AM 42.9333 -78.7500 216° Southwest 170 196 1,700  Level Buffalo TRACON
Fri 08:06:57 AM 42.8833 -78.8000 216° Southwest 207 238 3,500 2,200 Climbing Buffalo TRACON
Fri 08:07:57 AM 42.8139 -78.8369 201° Southwest 288 331 6,100 2,900 Climbing Cleveland Center
Fri 08:08:57 AM 42.7475 -78.8669 198° South 293 337 9,300 2,000 Climbing Cleveland Center
Fri 08:09:57 AM 42.6731 -78.9003 198° South 286 329 10,100 1,400 Climbing Cleveland Center
Fri 08:10:57 AM 42.5778 -78.9422 198° South 319 367 12,100 2,300 Climbing Cleveland Center
Fri 08:11:57 AM 42.4806 -78.9869 199° South 352 405 14,700 2,450 Climbing Cleveland Center
Fri 08:12:57 AM 42.3686 -79.0403 199° South 385 443 17,000 1,900 Climbing Cleveland Center
Fri 08:13:57 AM 42.2608 -79.0878 198° South 395 455 18,500 1,800 Climbing Cleveland Center
Fri 08:14:57 AM 42.1828 -79.1878 224° Southwest 386 444 20,600 1,850 Climbing Cleveland Center
Fri 08:15:57 AM 42.1803 -79.3333 269° West 355 409 22,200 1,600 Climbing Cleveland Center
Fri 08:16:57 AM 42.1797 -79.4792 270° West 358 412 23,800 1,550 Climbing Cleveland Center
Fri 08:17:57 AM 42.1789 -79.6222 270° West 395 455 25,300 1,350 Climbing Cleveland Center
Fri 08:18:57 AM 42.1781 -79.7706 270° West 400 460 26,500 1,450 Climbing Cleveland Center
Fri 08:19:57 AM 42.1750 -79.9247 269° West 412 474 28,200 1,750 Climbing Cleveland Center
Fri 08:20:57 AM 42.1714 -80.0789 268° West 412 474 30,000 1,650 Climbing Cleveland Center
Fri 08:21:57 AM 42.1678 -80.2217 268° West 399 459 31,500 1,450 Climbing Cleveland Center
Fri 08:22:57 AM 42.1642 -80.3675 268° West 394 453 32,900 1,250 Climbing Cleveland Center
Fri 08:23:57 AM 42.1622 -80.5075 269° West 379 436 34,000 550 Climbing Cleveland Center
Fri 08:24:57 AM 42.1581 -80.6503 268° West 379 436 34,000  Level Cleveland Center
Fri 08:25:57 AM 42.1536 -80.7933 268° West 384 442 34,000  Level Cleveland Center
Fri 08:26:57 AM 42.1533 -80.9389 270° West 384 442 34,000  Level Cleveland Center
Fri 08:27:57 AM 42.1714 -81.0903 279° West 379 436 34,000  Level Cleveland Center
Fri 08:28:57 AM 42.1853 -81.2306 278° West 379 436 34,000  Level Cleveland Center
Fri 08:29:57 AM 42.1969 -81.3681 277° West 379 436 34,000  Level Cleveland Center
Fri 08:30:57 AM 42.1917 -81.5136 267° West 379 436 34,000  Level Cleveland Center
Fri 08:31:57 AM 42.1864 -81.6536 267° West 385 443 34,000  Level Cleveland Center
Fri 08:32:57 AM 42.1808 -81.7964 267° West 385 443 34,000  Level Cleveland Center
Fri 08:33:57 AM 42.1750 -81.9364 267° West 385 443 34,000  Level Cleveland Center
Fri 08:34:57 AM 42.1692 -82.0792 267° West 386 444 34,000  Level Cleveland Center
Fri 08:35:57 AM 42.1631 -82.2164 267° West 381 438 34,000  Level Cleveland Center
Fri 08:36:57 AM 42.1589 -82.3589 268° West 381 438 34,000 450 Level Cleveland Center
Fri 08:37:57 AM 42.1503 -82.5017 265° West 381 438 34,900 850 Climbing Cleveland Center
Fri 08:38:57 AM 42.1436 -82.6414 266° West 381 438 35,700 550 Climbing Cleveland Center
Fri 08:39:57 AM 42.1433 -82.7786 270° West 381 438 36,000 150 Climbing Cleveland Center
Fri 08:40:57 AM 42.1319 -82.9211 264° West 386 444 36,000  Level Cleveland Center
Fri 08:41:57 AM 42.1250 -83.0636 266° West 386 444 36,000  Level Cleveland Center
Fri 08:42:57 AM 42.1178 -83.2006 266° West 386 444 36,000  Level Cleveland Center
Fri 08:43:57 AM 42.1125 -83.3292 267° West 386 444 36,000  Level Cleveland Center
Fri 08:44:57 AM 42.1072 -83.4689 267° West 386 444 36,000  Level Cleveland Center
Fri 08:45:57 AM 42.0997 -83.5944 265° West 381 438 36,000  Level Cleveland Center
Fri 08:46:57 AM 42.0914 -83.7453 266° West 381 438 36,000  Level Cleveland Center
Fri 08:49:20 AM 42.0742 -84.0847 266° West 372 428 36,000  Level Chicago Center
Fri 08:50:22 AM 42.0669 -84.2231 266° West 373 429 36,000  Level Chicago Center
Fri 08:51:24 AM 42.0589 -84.3597 266° West 368 423 36,000  Level Chicago Center
Fri 08:52:26 AM 42.0500 -84.4989 265° West 372 428 36,000  Level Chicago Center
Fri 08:53:27 AM 42.0419 -84.6364 266° West 370 426 36,000  Level Chicago Center
Fri 08:54:29 AM 42.0339 -84.7742 266° West 370 426 36,000  Level Chicago Center
Fri 08:55:31 AM 42.0250 -84.9108 265° West 367 422 36,000  Level Chicago Center
Fri 08:56:32 AM 42.0144 -85.0739 265° West 367 422 36,000  Level Chicago Center
Fri 08:57:34 AM 42.0047 -85.2100 265° West 365 420 36,000  Level Chicago Center
Fri 08:58:36 AM 41.9975 -85.3336 266° West 362 417 36,000  Level Chicago Center
Fri 08:59:38 AM 41.9889 -85.4681 265° West 364 419 36,000  Level Chicago Center
Fri 09:00:39 AM 41.9772 -85.6283 264° West 364 419 36,000  Level Chicago Center
Fri 09:01:41 AM 41.9675 -85.7625 264° West 364 419 36,000  Level Chicago Center
Fri 09:02:43 AM 41.9569 -85.8964 264° West 364 419 36,000  Level Chicago Center
Fri 09:03:44 AM 41.9486 -86.0308 265° West 363 418 36,000  Level Chicago Center
Fri 09:04:46 AM 41.9378 -86.1653 264° West 364 419 36,000  Level Chicago Center
Fri 09:05:48 AM 41.9286 -86.3003 265° West 365 420 36,000  Level Chicago Center
Fri 09:06:50 AM 41.9158 -86.4642 264° West 367 422 36,000  Level Chicago Center
Fri 09:07:51 AM 41.9061 -86.6008 265° West 369 425 36,000  Level Chicago Center
Fri 09:08:53 AM 41.8956 -86.7294 264° West 368 423 36,000  Level Chicago Center
Fri 09:09:55 AM 41.8825 -86.8644 263° West 367 422 36,000  Level Chicago Center
Fri 09:10:57 AM 41.8700 -87.0231 264° West 358 412 36,000  Level Chicago Center
Fri 09:11:58 AM 41.8586 -87.1558 263° West 359 413 36,000  Level Chicago Center
Fri 09:13:00 AM 41.8481 -87.2889 264° West 360 414 36,000  Level Chicago Center
Fri 09:14:02 AM 41.8364 -87.4236 263° West 363 418 36,000  Level Chicago Center
Fri 09:15:04 AM 41.8242 -87.5553 263° West 361 415 36,000  Level Chicago Center
Fri 09:16:06 AM 41.8119 -87.6894 263° West 365 420 36,000  Level Chicago Center
Fri 09:17:08 AM 41.7981 -87.8500 263° West 366 421 36,000  Level Chicago Center
Fri 09:18:09 AM 41.7864 -87.9833 263° West 365 420 36,000  Level Chicago Center
Fri 09:19:11 AM 41.7736 -88.1172 263° West 366 421 36,000  Level Chicago Center
Fri 09:20:13 AM 41.7611 -88.2522 263° West 370 426 36,000  Level Chicago Center
Fri 09:21:15 AM 41.7458 -88.4136 263° West 369 425 36,000  Level Chicago Center
Fri 09:22:17 AM 41.7325 -88.5489 263° West 370 426 36,000  Level Chicago Center
Fri 09:23:19 AM 41.7194 -88.6819 263° West 367 422 36,000  Level Chicago Center
Fri 09:24:21 AM 41.7069 -88.8158 263° West 366 421 36,000  Level Chicago Center
Fri 09:25:22 AM 41.6933 -88.9503 262° West 367 422 36,000  Level Chicago Center
Fri 09:26:24 AM 41.6797 -89.0844 262° West 368 423 36,000  Level Chicago Center
Fri 09:27:26 AM 41.6636 -89.2469 262° West 369 425 36,000  Level Chicago Center
Fri 09:28:28 AM 41.6519 -89.3822 263° West 367 422 36,000  Level Chicago Center
Fri 09:29:30 AM 41.6383 -89.5169 262° West 368 423 36,000  Level Chicago Center
Fri 09:30:32 AM 41.6211 -89.6583 261° West 378 435 36,000  Level Chicago Center
Fri 09:31:34 AM 41.6067 -89.7931 262° West 372 428 36,000  Level Chicago Center
Fri 09:32:36 AM 41.5928 -89.9283 262° West 369 425 36,000  Level Chicago Center
Fri 09:33:38 AM 41.5750 -90.0917 262° West 371 427 36,000  Level Chicago Center
Fri 09:34:39 AM 41.5603 -90.2272 262° West 371 427 36,000  Level Chicago Center
Fri 09:35:41 AM 41.5428 -90.3689 261° West 384 442 36,000  Level Chicago Center
Fri 09:36:43 AM 41.5278 -90.5006 261° West 364 419 36,000  Level Chicago Center
Fri 09:37:45 AM 41.5131 -90.6378 262° West 373 429 36,000  Level Chicago Center
Fri 09:38:47 AM 41.4964 -90.7775 261° West 382 440 36,000  Level Chicago Center
Fri 09:39:49 AM 41.4772 -90.9428 261° West 378 435 36,000  Level Chicago Center
Fri 09:40:51 AM 41.4611 -91.0806 261° West 378 435 36,000  Level Chicago Center
Fri 09:41:53 AM 41.4442 -91.2172 261° West 374 430 36,000  Level Chicago Center
Fri 09:42:54 AM 41.4278 -91.3528 261° West 377 434 36,000  Level Chicago Center
Fri 09:43:56 AM 41.4111 -91.4881 261° West 374 430 36,000  Level Chicago Center
Fri 09:44:58 AM 41.3950 -91.6225 261° West 370 426 36,000  Level Chicago Center
Fri 09:46:00 AM 41.3753 -91.7831 261° West 369 425 36,000  Level Chicago Center
Fri 09:47:02 AM 41.3581 -91.9158 260° West 367 422 36,000  Level Chicago Center
Fri 09:48:04 AM 41.3411 -92.0469 260° West 363 418 36,000  Level Chicago Center
Fri 09:49:05 AM 41.3239 -92.1808 260° West 367 422 36,000  Level Chicago Center
Fri 09:50:07 AM 41.3069 -92.3142 260° West 369 425 36,000  Level Chicago Center
Fri 09:51:09 AM 41.2878 -92.4611 260° West 370 426 36,000  Level Chicago Center
Fri 09:52:11 AM 41.2697 -92.5958 260° West 373 429 36,000  Level Chicago Center
Fri 09:52:46 AM 41.2589 -92.6800 260° West 377 434 36,000  Level Minneapolis Center
Fri 09:53:48 AM 41.2408 -92.8139 260° West 375 432 36,000  Level Minneapolis Center
Fri 09:54:50 AM 41.2175 -92.9764 259° West 377 434 36,000  Level Minneapolis Center
Fri 09:55:51 AM 41.1994 -93.1136 260° West 380 437 36,000  Level Minneapolis Center
Fri 09:56:53 AM 41.1803 -93.2492 259° West 378 435 36,000  Level Minneapolis Center
Fri 09:57:55 AM 41.1619 -93.3853 260° West 380 437 36,000  Level Minneapolis Center
Fri 09:58:56 AM 41.1417 -93.5211 259° West 379 436 36,000  Level Minneapolis Center
Fri 09:59:58 AM 41.1211 -93.6594 259° West 382 440 36,000  Level Minneapolis Center
Fri 10:01:00 AM 41.0983 -93.8236 260° West 383 441 36,000  Level Minneapolis Center
Fri 10:02:01 AM 41.0806 -93.9569 260° West 378 435 36,000  Level Minneapolis Center
Fri 10:03:03 AM 41.0600 -94.0956 259° West 383 441 36,000  Level Minneapolis Center
Fri 10:04:05 AM 41.0406 -94.2328 259° West 385 443 36,000  Level Minneapolis Center
Fri 10:05:06 AM 41.0242 -94.3439 259° West 386 444 36,000  Level Minneapolis Center
Fri 10:06:08 AM 40.9975 -94.5089 258° West 387 445 36,000  Level Minneapolis Center
Fri 10:07:10 AM 40.9753 -94.6561 259° West 386 444 36,000  Level Minneapolis Center
Fri 10:08:12 AM 40.9544 -94.7953 259° West 386 444 36,000  Level Minneapolis Center
Fri 10:09:14 AM 40.9278 -94.9642 258° West 390 449 36,000  Level Minneapolis Center
Fri 10:10:15 AM 40.9064 -95.1042 259° West 389 448 36,000  Level Minneapolis Center
Fri 10:11:17 AM 40.8883 -95.2169 258° West 390 449 36,000  Level Minneapolis Center
Fri 10:12:19 AM 40.8617 -95.3847 258° West 388 447 36,000  Level Minneapolis Center
Fri 10:13:21 AM 40.8394 -95.5250 258° West 388 447 36,000  Level Minneapolis Center
Fri 10:14:23 AM 40.8175 -95.6625 258° West 384 442 36,000  Level Minneapolis Center
Fri 10:15:24 AM 40.7950 -95.8014 258° West 383 441 36,000  Level Minneapolis Center
Fri 10:16:26 AM 40.7722 -95.9403 258° West 385 443 36,000  Level Minneapolis Center
Fri 10:17:28 AM 40.7439 -96.1075 257° West 387 445 36,000  Level Minneapolis Center
Fri 10:18:30 AM 40.7217 -96.2467 258° West 386 444 36,000  Level Minneapolis Center
Fri 10:19:32 AM 40.6983 -96.3864 258° West 388 447 36,000  Level Minneapolis Center
Fri 10:20:34 AM 40.6750 -96.5256 258° West 388 447 36,000  Level Minneapolis Center
Fri 10:21:36 AM 40.6506 -96.6633 257° West 387 445 36,000  Level Minneapolis Center
Fri 10:22:38 AM 40.6281 -96.8014 258° West 386 444 36,000  Level Minneapolis Center
Fri 10:23:40 AM 40.6039 -96.9397 257° West 386 444 36,000  Level Minneapolis Center
Fri 10:24:42 AM 40.5750 -97.1044 257° West 386 444 36,000  Level Minneapolis Center
Fri 10:25:44 AM 40.5517 -97.2425 258° West 387 445 36,000  Level Minneapolis Center
Fri 10:26:46 AM 40.5281 -97.3689 256° West 388 447 36,000  Level Minneapolis Center
Fri 10:27:47 AM 40.5036 -97.5083 257° West 390 449 36,000  Level Minneapolis Center
Fri 10:28:50 AM 40.4736 -97.6756 257° West 391 450 36,000  Level Minneapolis Center
Fri 10:29:51 AM 40.4475 -97.8156 256° West 392 451 36,000  Level Minneapolis Center
Fri 10:30:53 AM 40.4214 -97.9572 256° West 396 456 36,000  Level Minneapolis Center
Fri 10:31:56 AM 40.3972 -98.0975 257° West 394 453 36,000  Level Minneapolis Center
Fri 10:32:58 AM 40.3711 -98.2372 256° West 394 453 36,000  Level Minneapolis Center
Fri 10:34:00 AM 40.3442 -98.3758 256° West 392 451 36,000  Level Minneapolis Center
Fri 10:35:02 AM 40.3186 -98.5144 256° West 391 450 36,000  Level Minneapolis Center
Fri 10:36:04 AM 40.2875 -98.6794 256° West 389 448 36,000  Level Minneapolis Center
Fri 10:37:06 AM 40.2611 -98.8178 256° West 389 448 36,000  Level Minneapolis Center
Fri 10:38:08 AM 40.2344 -98.9575 256° West 392 451 36,000  Level Minneapolis Center
Fri 10:39:10 AM 40.2072 -99.0981 256° West 394 453 36,000  Level Minneapolis Center
Fri 10:40:11 AM 40.1797 -99.2375 256° West 395 455 36,000  Level Minneapolis Center
Fri 10:41:13 AM 40.1519 -99.3778 256° West 397 457 36,000  Level Minneapolis Center
Fri 10:42:15 AM 40.1247 -99.5186 256° West 398 458 36,000  Level Minneapolis Center
Fri 10:43:17 AM 40.0964 -99.6617 256° West 404 465 36,000  Level Minneapolis Center
Fri 10:44:19 AM 40.0619 -99.8333 255° West 405 466 36,000  Level Minneapolis Center
Fri 10:45:21 AM 40.0322 -99.9761 255° West 407 468 36,000  Level Minneapolis Center
Fri 10:46:23 AM 40.0039 -100.1194 256° West 407 468 36,000  Level Minneapolis Center
Fri 10:47:25 AM 39.9742 -100.2636 255° West 409 471 36,000  Level Minneapolis Center
Fri 10:48:27 AM 39.9456 -100.4086 256° West 411 473 36,000  Level Minneapolis Center
Fri 10:49:41 AM 39.9047 -100.5956 254° West 411 473 36,000  Level Denver Center
Fri 10:50:43 AM 39.8767 -100.7336 255° West 411 473 36,000  Level Denver Center
Fri 10:51:45 AM 39.8414 -100.8942 254° West 412 474 36,000  Level Denver Center
Fri 10:52:47 AM 39.8117 -101.0311 254° West 410 472 36,000  Level Denver Center
Fri 10:53:49 AM 39.7772 -101.1911 254° West 412 474 36,000  Level Denver Center
Fri 10:54:51 AM 39.7483 -101.3289 255° West 413 475 36,000  Level Denver Center
Fri 10:55:53 AM 39.7183 -101.4661 254° West 410 472 36,000  Level Denver Center
Fri 10:56:55 AM 39.6847 -101.6247 255° West 410 472 36,000  Level Denver Center
Fri 10:57:57 AM 39.6542 -101.7569 253° West 403 464 36,000  Level Denver Center
Fri 10:58:59 AM 39.6203 -101.9133 254° West 402 463 36,000  Level Denver Center
Fri 11:00:01 AM 39.5911 -102.0467 254° West 401 461 36,000  Level Denver Center
Fri 11:01:03 AM 39.5558 -102.2053 254° West 408 470 36,000  Level Denver Center
Fri 11:02:05 AM 39.5261 -102.3397 254° West 405 466 36,000  Level Denver Center
Fri 11:03:07 AM 39.4917 -102.4869 253° West 406 467 36,000  Level Denver Center
Fri 11:04:10 AM 39.4586 -102.6289 253° West 409 471 36,000  Level Denver Center
Fri 11:05:12 AM 39.4264 -102.7719 254° West 410 472 36,000  Level Denver Center
Fri 11:06:14 AM 39.3931 -102.9156 253° West 412 474 36,000  Level Denver Center
Fri 11:07:16 AM 39.3544 -103.0828 253° West 412 474 36,000  Level Denver Center
Fri 11:08:18 AM 39.3208 -103.2258 253° West 412 474 36,000  Level Denver Center
Fri 11:09:20 AM 39.2864 -103.3714 253° West 418 481 36,000  Level Denver Center
Fri 11:10:22 AM 39.2519 -103.5150 253° West 416 479 36,000  Level Denver Center
Fri 11:11:24 AM 39.2169 -103.6600 253° West 418 481 36,000  Level Denver Center
Fri 11:12:26 AM 39.1817 -103.8067 253° West 423 487 36,000  Level Denver Center
Fri 11:13:28 AM 39.1458 -103.9533 253° West 425 489 36,000  Level Denver Center
Fri 11:14:30 AM 39.1108 -104.0994 253° West 423 487 36,000  Level Denver Center
Fri 11:15:32 AM 39.0689 -104.2694 252° West 422 486 36,000  Level Denver Center
Fri 11:16:34 AM 39.0328 -104.4144 252° West 420 483 36,000  Level Denver Center
Fri 11:17:36 AM 38.9975 -104.5600 253° West 422 486 36,000  Level Denver Center
Fri 11:18:38 AM 38.9614 -104.7028 252° West 415 478 36,000  Level Denver Center
Fri 11:19:40 AM 38.9258 -104.8467 252° West 416 479 36,000  Level Denver Center
Fri 11:20:42 AM 38.8886 -104.9889 251° West 416 479 36,000  Level Denver Center
Fri 11:21:44 AM 38.8528 -105.1319 252° West 416 479 36,000  Level Denver Center
Fri 11:22:46 AM 38.8161 -105.2756 252° West 418 481 36,000  Level Denver Center
Fri 11:23:48 AM 38.7786 -105.4211 252° West 424 488 36,000  Level Denver Center
Fri 11:24:51 AM 38.7350 -105.5908 252° West 427 491 36,000  Level Denver Center
Fri 11:25:53 AM 38.6969 -105.7356 251° West 425 489 36,000  Level Denver Center
Fri 11:26:55 AM 38.6586 -105.8814 251° West 428 493 36,000  Level Denver Center
Fri 11:27:57 AM 38.6211 -106.0267 252° West 427 491 36,000  Level Denver Center
Fri 11:28:59 AM 38.5803 -106.1811 251° West 427 491 36,000  Level Denver Center
Fri 11:30:01 AM 38.5403 -106.3267 251° West 424 488 36,000  Level Denver Center
Fri 11:31:03 AM 38.5019 -106.4675 251° West 427 491 36,000  Level Denver Center
Fri 11:32:05 AM 38.4642 -106.6119 252° West 426 490 36,000  Level Denver Center
Fri 11:33:07 AM 38.4250 -106.7544 251° West 423 487 36,000  Level Denver Center
Fri 11:34:09 AM 38.3864 -106.8969 251° West 424 488 36,000  Level Denver Center
Fri 11:35:11 AM 38.3469 -107.0403 251° West 426 490 36,000  Level Denver Center
Fri 11:36:13 AM 38.3006 -107.2103 251° West 422 486 36,000  Level Denver Center
Fri 11:37:15 AM 38.2625 -107.3472 251° West 426 490 36,000  Level Denver Center
Fri 11:38:17 AM 38.2181 -107.5042 250° West 422 486 36,000  Level Denver Center
Fri 11:39:19 AM 38.1811 -107.6386 251° West 421 484 36,000  Level Denver Center
Fri 11:40:21 AM 38.1367 -107.7958 250° West 423 487 36,000  Level Denver Center
Fri 11:41:23 AM 38.0986 -107.9306 250° West 422 486 36,000  Level Denver Center
Fri 11:42:25 AM 38.0581 -108.0753 250° West 423 487 36,000  Level Denver Center
Fri 11:43:27 AM 38.0133 -108.2283 250° West 418 481 36,000  Level Denver Center
Fri 11:44:29 AM 37.9817 -108.3625 253° West 417 480 36,000  Level Denver Center
Fri 11:45:31 AM 37.9517 -108.4981 254° West 417 480 36,000  Level Denver Center
Fri 11:46:33 AM 37.9172 -108.6592 255° West 422 486 36,000  Level Denver Center
Fri 11:47:36 AM 37.8869 -108.7967 254° West 424 488 36,000  Level Denver Center
Fri 11:48:38 AM 37.8506 -108.9547 254° West 421 484 36,000  Level Denver Center
Fri 11:49:40 AM 37.8200 -109.0942 255° West 428 493 36,000  Level Denver Center
Fri 11:50:42 AM 37.7836 -109.2544 254° West 427 491 36,000  Level Denver Center
Fri 11:51:44 AM 37.7522 -109.3950 254° West 432 497 36,000  Level Denver Center
Fri 11:52:46 AM 37.7153 -109.5556 254° West 428 493 36,000  Level Denver Center
Fri 11:53:48 AM 37.6839 -109.6917 254° West 424 488 36,000  Level Denver Center
Fri 11:54:50 AM 37.6469 -109.8525 254° West 428 493 36,000  Level Denver Center
Fri 11:56:54 AM 37.5775 -110.1486 254° West 425 489 36,000  Level Denver Center
Fri 11:57:56 AM 37.5450 -110.2869 254° West 431 496 36,000  Level Denver Center
Fri 11:58:58 AM 37.5064 -110.4503 253° West 436 502 36,000  Level Denver Center
Fri 12:00:00 PM 37.4728 -110.5892 253° West 435 501 36,000  Level Denver Center
Fri 12:01:02 PM 37.4383 -110.7358 254° West 438 504 36,000  Level Denver Center
Fri 12:02:04 PM 37.4031 -110.8819 253° West 438 504 36,000  Level Denver Center
Fri 12:03:06 PM 37.3614 -111.0556 253° West 434 499 36,000  Level Denver Center
Fri 12:04:08 PM 37.3244 -111.1981 252° West 431 496 36,000  Level Denver Center
Fri 12:05:10 PM 37.2908 -111.3417 254° West 429 494 36,000 -720 Level Denver Center
Fri 12:06:13 PM 37.2544 -111.4847 252° West 430 495 34,500 -1,488 Descending Denver Center
Fri 12:07:15 PM 37.2186 -111.6278 253° West 431 496 32,900 -1,210 Descending Denver Center
Fri 12:08:17 PM 37.1833 -111.7742 253° West 436 502 32,000 -484 Descending Denver Center
Fri 12:09:19 PM 37.1400 -111.9447 252° West 430 495 31,900 -400 Descending Denver Center
Fri 12:09:47 PM 37.1253 -112.0019 252° West 427 491 31,400 -1,065 Descending Los Angeles Center
Fri 12:10:21 PM 37.1039 -112.0842 252° West 424 488 30,800 -968 Descending Denver Center
Fri 12:10:49 PM 37.0889 -112.1397 251° West 419 482 30,400 -733 Descending Los Angeles Center
Fri 12:11:51 PM 37.0614 -112.2525 253° West 421 484 29,700 -919 Descending Los Angeles Center
Fri 12:12:53 PM 37.0164 -112.4214 252° West 425 489 28,500 -823 Descending Los Angeles Center
Fri 12:13:55 PM 36.9731 -112.5933 253° West 429 494 28,000 -240 Descending Los Angeles Center
Fri 12:14:58 PM 36.9378 -112.7319 252° West 421 484 28,000  Level Los Angeles Center
Fri 12:16:00 PM 36.9028 -112.8640 252° West  Level FlightAware Approximate
Fri 12:17:02 PM 36.8658 -113.0053 252° West 413 475 28,000  Level Los Angeles Center
Fri 12:18:04 PM 36.8294 -113.1392 251° West 408 470 28,000  Level Los Angeles Center
Fri 12:19:06 PM 36.7942 -113.2747 252° West 410 472 28,000 -48 Level Los Angeles Center
Fri 12:20:08 PM 36.7586 -113.4067 251° West 405 466 27,900 -919 Descending Los Angeles Center
Fri 12:21:10 PM 36.7197 -113.5542 252° West 376 433 26,100 -1,588 Descending Los Angeles Center
Fri 12:22:24 PM 36.6872 -113.6722 251° West 364 419 24,300 -1,708 Descending Los Angeles Center
Fri 12:23:27 PM 36.6503 -113.8117 252° West 354 407 22,200 -1,776 Descending Los Angeles Center
Fri 12:24:29 PM 36.6197 -113.9244 251° West 345 397 20,600 -1,597 Descending Los Angeles Center
Fri 12:25:31 PM 36.5892 -114.0339 251° West 337 388 18,900 -1,563 Descending Los Angeles Center
Fri 12:26:28 PM 36.5481 -114.1431 245° Southwest 327 376 17,500 -1,548 Descending Los Angeles Center
Fri 12:27:04 PM 36.5236 -114.2078 245° Southwest 345 397 16,500 -1,522 Descending Los Angeles Center
Fri 12:27:35 PM 36.5053 -114.2411 236° Southwest 321 369 15,800 -1,726 Descending Los Angeles Center
Fri 12:28:17 PM 36.4692 -114.3231 241° Southwest 316 364 14,400 -1,548 Descending Los Angeles Center
Fri 12:28:37 PM 36.4606 -114.3358 230° Southwest 320 368 14,200 -1,574 Descending Los Angeles Center
Fri 12:29:18 PM 36.4256 -114.4183 242° Southwest 312 359 12,800 -1,839 Descending Los Angeles Center
Fri 12:29:39 PM 36.4078 -114.4478 233° Southwest 314 361 12,300 -885 Descending Los Angeles Center
Fri 12:30:19 PM 36.3708 -114.4933 225° Southwest 300 345 11,900 -677 Descending Los Angeles Center
Fri 12:30:41 PM 36.3403 -114.4983 188° South 307 353 11,600 -984 Descending Los Angeles Center
Fri 12:31:20 PM 36.2919 -114.5281 206° Southwest 304 350 10,900 -1,161 Descending Los Angeles Center
Fri 12:31:43 PM 36.2658 -114.5469 210° Southwest 305 351 10,400 -1,522 Descending Los Angeles Center
Fri 12:32:27 PM 36.2169 -114.5989 221° Southwest 299 344 9,200 -1,161 Descending Los Angeles Center
Fri 12:32:45 PM 36.2133 -114.5969 157° South 298 343 9,200 -1,200 Level Los Angeles Center
Fri 12:33:22 PM 36.1556 -114.6542 219° Southwest 294 338 8,100 -1,143 Descending Los Angeles Center
Fri 12:33:48 PM 36.1350 -114.6683 209° Southwest 293 337 8,000 -98 Descending Los Angeles Center
Fri 12:34:23 PM 36.0925 -114.7103 219° Southwest 276 318 8,000 -97 Level Los Angeles Center
Fri 12:34:50 PM 36.0750 -114.7269 218° Southwest 284 327 7,900 -700 Descending Los Angeles Center
Fri 12:35:23 PM 36.0744 -114.7856 269° West 248 285 7,300 -952 Descending Los Angeles Center
Fri 12:35:53 PM 36.0744 -114.8061 270° West 249 287 6,900 -885 Descending Los Angeles Center
Fri 12:36:24 PM 36.0742 -114.8628 270° West 227 261 6,400 -1,082 Descending Los Angeles Center
Fri 12:36:54 PM 36.0744 -114.9008 271° West 236 272 5,800 -1,309 Descending Los Angeles Center
Fri 12:37:19 PM 36.0747 -114.9344 271° West 226 260 5,200 -1,355 Descending Los Angeles Center
Fri 12:37:56 PM 36.0739 -114.9789 269° West 231 266 4,400 -1,279 Descending Los Angeles Center
Fri 12:38:20 PM 36.0739 -115.0092 270° West 217 250 3,900 -968 Descending Los Angeles Center
Fri 12:38:58 PM 36.0739 -115.0456 270° West 215 247 3,400 -885 Descending Los Angeles Center
Fri 12:39:21 PM 36.0742 -115.0703 271° West 176 203 3,000 -871 Descending Los Angeles Center
Fri 12:40:00 PM 36.0739 -115.1000 269° West 182 209 2,500 -535 Descending Los Angeles Center
Fri 12:41:02 PM 36.0742 -115.1500 270° West 164 189 2,100 -387 Descending Los Angeles Center

Login

Don't have an account? Register now (free) for customized features, flight alerts, and more!